Time;durP1;ratioP1;P1;durP2;ratioP2;P2;SDS_P1;SDS_P2;PMS_P1;PMS_P2;Temp;Humidity;BMP_temperature;BMP_pressure;BME280_temperature;BME280_humidity;BME280_pressure;Samples;Min_cycle;Max_cycle;Signal;HPM_P1;HPM_P2
2022/02/02 00:00:18;;;;;;;15.00;8.37;;;;;;;;;;4432025;32;20252;-84
2022/02/02 00:02:51;;;;;;;17.97;9.83;;;;;;;;;;4431984;32;20664;-81
2022/02/02 00:05:25;;;;;;;16.13;10.00;;;;;;;;;;4433742;32;20626;-83
2022/02/02 00:07:53;;;;;;;21.37;10.57;;;;;;;;;;4433396;32;20260;-81
2022/02/02 00:13:06;;;;;;;24.93;12.10;;;;;;;;;;4433479;32;20208;-80
2022/02/02 00:23:19;;;;;;;13.80;7.93;;;;;;;;;;4432962;32;20334;-81
2022/02/02 00:25:52;;;;;;;23.33;10.37;;;;;;;;;;4433483;32;20347;-80
2022/02/02 00:28:24;;;;;;;23.23;9.93;;;;;;;;;;4438302;32;20280;-81
2022/02/02 00:30:50;;;;;;;27.93;13.67;;;;;;;;;;4449066;32;20203;-81
2022/02/02 00:35:56;;;;;;;23.47;13.00;;;;;;;;;;4448770;32;20225;-81
2022/02/02 00:38:21;;;;;;;25.33;13.27;;;;;;;;;;4447701;32;20269;-81
2022/02/02 00:40:46;;;;;;;26.37;13.53;;;;;;;;;;4419074;32;20352;-80
2022/02/02 00:43:12;;;;;;;28.00;13.53;;;;;;;;;;4433303;32;20212;-80
2022/02/02 00:45:44;;;;;;;32.07;16.63;;;;;;;;;;4442663;32;20292;-81
2022/02/02 00:48:12;;;;;;;21.63;13.60;;;;;;;;;;4448487;32;20220;-84
2022/02/02 00:50:37;;;;;;;23.70;13.70;;;;;;;;;;4433875;32;20223;-80
2022/02/02 00:53:06;;;;;;;27.20;14.60;;;;;;;;;;4432993;32;20258;-87
2022/02/02 00:55:33;;;;;;;20.53;13.00;;;;;;;;;;4420076;32;20213;-81
2022/02/02 00:57:59;;;;;;;23.73;13.13;;;;;;;;;;4436159;32;20228;-80
2022/02/02 01:00:26;;;;;;;21.83;12.60;;;;;;;;;;4451510;32;20296;-84
2022/02/02 01:02:51;;;;;;;19.23;12.10;;;;;;;;;;4449511;32;20192;-79
2022/02/02 01:05:17;;;;;;;21.37;11.07;;;;;;;;;;4436322;32;20259;-83
2022/02/02 01:08:20;;;;;;;31.00;15.17;;;;;;;;;;4435910;32;20403;-80
2022/02/02 01:10:46;;;;;;;22.00;12.77;;;;;;;;;;4436078;32;20300;-80
2022/02/02 01:18:59;;;;;;;25.47;11.67;;;;;;;;;;4435781;32;20239;-80
2022/02/02 01:21:44;;;;;;;37.63;16.50;;;;;;;;;;4435582;32;20312;-81
2022/02/02 01:29:38;;;;;;;31.70;16.23;;;;;;;;;;4434954;32;20270;-80
2022/02/02 01:32:04;;;;;;;30.30;14.13;;;;;;;;;;4435233;32;20363;-80
2022/02/02 01:34:29;;;;;;;40.47;16.97;;;;;;;;;;4434788;32;20648;-82
2022/02/02 01:36:55;;;;;;;40.07;19.47;;;;;;;;;;4433680;32;20313;-81
2022/02/02 01:39:25;;;;;;;35.97;18.30;;;;;;;;;;4443514;32;20329;-80
2022/02/02 01:41:52;;;;;;;36.83;20.60;;;;;;;;;;4450746;32;20201;-80
2022/02/02 01:44:30;;;;;;;33.57;17.13;;;;;;;;;;4450745;32;20280;-80
2022/02/02 01:46:57;;;;;;;24.20;13.60;;;;;;;;;;4448521;32;20216;-80
2022/02/02 01:52:25;;;;;;;20.60;10.10;;;;;;;;;;4434391;32;20260;-82
2022/02/02 01:54:57;;;;;;;15.90;9.70;;;;;;;;;;4435011;32;20237;-80
2022/02/02 02:00:10;;;;;;;14.57;8.20;;;;;;;;;;4434891;32;20244;-82
2022/02/02 02:02:36;;;;;;;15.50;8.43;;;;;;;;;;4435357;32;20297;-79
2022/02/02 02:05:04;;;;;;;12.07;6.90;;;;;;;;;;4435089;32;20243;-81
2022/02/02 02:07:29;;;;;;;12.83;7.57;;;;;;;;;;4434836;32;20237;-81
2022/02/02 02:09:57;;;;;;;18.23;9.43;;;;;;;;;;4434933;32;20221;-81
2022/02/02 02:12:23;;;;;;;14.60;8.97;;;;;;;;;;4435542;32;20227;-80
2022/02/02 02:14:57;;;;;;;18.87;10.40;;;;;;;;;;4435091;32;20561;-80
2022/02/02 02:17:24;;;;;;;19.00;10.83;;;;;;;;;;4435216;32;20292;-81
2022/02/02 02:19:51;;;;;;;17.67;10.17;;;;;;;;;;4433794;32;20255;-81
2022/02/02 02:22:22;;;;;;;29.77;16.03;;;;;;;;;;4433970;32;20249;-80
2022/02/02 02:24:48;;;;;;;43.17;23.00;;;;;;;;;;4423334;32;20247;-81
2022/02/02 02:27:17;;;;;;;26.13;13.47;;;;;;;;;;4450435;32;20231;-81
2022/02/02 02:56:30;;;;;;;64.67;32.90;;;;;;;;;;4434729;32;20235;-83
2022/02/02 02:59:18;;;;;;;51.57;25.17;;;;;;;;;;4434698;32;20229;-81
2022/02/02 03:51:08;;;;;;;25.23;14.40;;;;;;;;;;4449723;32;20225;-83
2022/02/02 03:54:01;;;;;;;24.47;15.03;;;;;;;;;;4449464;32;20236;-82
2022/02/02 04:01:35;;;;;;;26.73;14.40;;;;;;;;;;4433646;32;20239;-81
2022/02/02 04:09:40;;;;;;;38.83;21.77;;;;;;;;;;4422648;32;20236;-82
2022/02/02 04:12:15;;;;;;;43.50;24.03;;;;;;;;;;4435043;32;20772;-82
2022/02/02 04:55:49;;;;;;;46.03;26.47;;;;;;;;;;4452261;32;20214;-82
2022/02/02 05:09:00;;;;;;;31.30;18.77;;;;;;;;;;4436518;32;20235;-82
2022/02/02 05:49:11;;;;;;;39.60;22.63;;;;;;;;;;4436231;32;20307;-82
2022/02/02 05:54:06;;;;;;;20.53;12.00;;;;;;;;;;4435047;32;20192;-85
2022/02/02 05:56:39;;;;;;;21.17;10.43;;;;;;;;;;4435959;32;20256;-81
2022/02/02 05:59:06;;;;;;;17.20;9.97;;;;;;;;;;4436462;32;20597;-81
2022/02/02 06:01:33;;;;;;;16.80;10.47;;;;;;;;;;4434815;32;20773;-81
2022/02/02 06:04:08;;;;;;;27.40;13.13;;;;;;;;;;4440232;32;20213;-83
2022/02/02 06:06:33;;;;;;;17.87;12.53;;;;;;;;;;4454615;32;20254;-88
2022/02/02 06:09:00;;;;;;;27.80;16.77;;;;;;;;;;4441110;32;20388;-81
2022/02/02 06:11:26;;;;;;;34.90;17.43;;;;;;;;;;4435407;32;20247;-81
2022/02/02 06:13:56;;;;;;;31.63;14.97;;;;;;;;;;4436210;32;20201;-81
2022/02/02 06:16:25;;;;;;;23.83;11.87;;;;;;;;;;4436701;32;20634;-85
2022/02/02 06:18:58;;;;;;;32.53;16.80;;;;;;;;;;4436560;32;20209;-80
2022/02/02 06:21:36;;;;;;;27.77;14.90;;;;;;;;;;4436061;32;20351;-80
2022/02/02 06:24:17;;;;;;;17.83;10.57;;;;;;;;;;4435978;32;20201;-79
2022/02/02 06:26:54;;;;;;;13.80;9.17;;;;;;;;;;4436379;32;20271;-81
2022/02/02 06:29:21;;;;;;;12.53;9.20;;;;;;;;;;4422094;32;20256;-80
2022/02/02 06:31:46;;;;;;;13.63;8.83;;;;;;;;;;4435637;32;20201;-81
2022/02/02 06:34:14;;;;;;;14.37;8.80;;;;;;;;;;4421528;32;20769;-82
2022/02/02 06:36:41;;;;;;;16.20;10.50;;;;;;;;;;4434575;32;20266;-82
2022/02/02 06:39:12;;;;;;;16.60;11.30;;;;;;;;;;4434157;32;20236;-82
2022/02/02 06:41:38;;;;;;;24.20;15.07;;;;;;;;;;4419953;32;20726;-82
2022/02/02 06:44:05;;;;;;;19.03;12.00;;;;;;;;;;4434289;32;20287;-83
2022/02/02 06:46:36;;;;;;;23.13;15.10;;;;;;;;;;4449828;32;20229;-82
2022/02/02 06:49:02;;;;;;;33.00;18.67;;;;;;;;;;4450745;32;20220;-82
2022/02/02 06:51:37;;;;;;;34.97;19.53;;;;;;;;;;4449000;32;20231;-81
2022/02/02 06:54:20;;;;;;;39.37;22.93;;;;;;;;;;4449280;32;20585;-80
2022/02/02 06:57:05;;;;;;;131.80;53.60;;;;;;;;;;4449450;32;20285;-85
2022/02/02 07:00:00;;;;;;;67.87;35.20;;;;;;;;;;4449860;32;20242;-80
2022/02/02 07:02:48;;;;;;;57.87;29.47;;;;;;;;;;4448668;32;20278;-80
2022/02/02 07:31:45;;;;;;;33.07;19.97;;;;;;;;;;4436020;32;20836;-87
2022/02/02 07:34:43;;;;;;;41.23;24.00;;;;;;;;;;4437110;32;20216;-81
2022/02/02 07:37:12;;;;;;;81.37;38.43;;;;;;;;;;4437505;32;20201;-80
2022/02/02 07:39:39;;;;;;;121.07;54.20;;;;;;;;;;4436283;32;20370;-80
2022/02/02 07:42:09;;;;;;;49.93;23.47;;;;;;;;;;4436265;32;20255;-80
2022/02/02 07:44:37;;;;;;;32.37;20.07;;;;;;;;;;4437838;32;20325;-82
2022/02/02 07:47:10;;;;;;;38.40;21.83;;;;;;;;;;4437801;32;20335;-80
2022/02/02 07:49:44;;;;;;;22.77;16.27;;;;;;;;;;4438530;32;20239;-83
2022/02/02 07:52:12;;;;;;;30.23;18.50;;;;;;;;;;4438027;32;20240;-81
2022/02/02 07:54:41;;;;;;;34.67;20.83;;;;;;;;;;4439056;32;20229;-81
2022/02/02 07:57:13;;;;;;;36.50;23.53;;;;;;;;;;4437990;32;20229;-81
2022/02/02 08:02:13;;;;;;;80.97;44.67;;;;;;;;;;4447602;32;20216;-86
2022/02/02 08:04:39;;;;;;;38.10;21.43;;;;;;;;;;4449605;32;20224;-83
2022/02/02 08:07:06;;;;;;;28.33;17.73;;;;;;;;;;4462396;32;20324;-83
2022/02/02 08:11:59;;;;;;;28.73;19.33;;;;;;;;;;4448071;32;20258;-82
2022/02/02 08:14:26;;;;;;;32.07;19.97;;;;;;;;;;4447363;32;20256;-84
2022/02/02 08:16:51;;;;;;;33.50;20.50;;;;;;;;;;4447675;32;20183;-83
2022/02/02 08:19:18;;;;;;;33.10;21.30;;;;;;;;;;4447886;32;20221;-80
2022/02/02 08:21:46;;;;;;;49.07;26.30;;;;;;;;;;4446794;32;20196;-82
2022/02/02 08:24:13;;;;;;;65.10;36.80;;;;;;;;;;4447469;32;20251;-81
2022/02/02 08:26:38;;;;;;;64.67;35.80;;;;;;;;;;4447550;32;20221;-84
2022/02/02 08:29:06;;;;;;;51.57;32.03;;;;;;;;;;4433683;32;20341;-86
2022/02/02 08:31:32;;;;;;;55.77;31.47;;;;;;;;;;4447071;32;20196;-81
2022/02/02 08:34:00;;;;;;;218.87;95.07;;;;;;;;;;4447818;32;20251;-81
2022/02/02 08:36:27;;;;;;;54.63;29.10;;;;;;;;;;4447352;32;20249;-90
2022/02/02 08:41:30;;;;;;;45.43;26.37;;;;;;;;;;4447225;32;20154;-83
2022/02/02 08:46:30;;;;;;;39.50;24.03;;;;;;;;;;4434981;32;20265;-82
2022/02/02 08:48:57;;;;;;;36.47;23.27;;;;;;;;;;4433434;32;20209;-83
2022/02/02 08:51:27;;;;;;;36.03;21.33;;;;;;;;;;4433198;32;20258;-84
2022/02/02 08:54:09;;;;;;;37.77;21.40;;;;;;;;;;4433681;32;20305;-88
2022/02/02 08:59:03;;;;;;;43.30;26.43;;;;;;;;;;4432579;32;20300;-83
2022/02/02 09:01:33;;;;;;;46.63;29.07;;;;;;;;;;4434505;32;20228;-83
2022/02/02 09:06:43;;;;;;;52.47;28.57;;;;;;;;;;4434764;32;20196;-79
2022/02/02 09:09:15;;;;;;;39.97;24.17;;;;;;;;;;4446130;32;20561;-79
2022/02/02 09:25:42;;;;;;;66.17;37.33;;;;;;;;;;4451191;32;20215;-80
2022/02/02 09:36:16;;;;;;;35.80;20.20;;;;;;;;;;4450893;32;20595;-81
2022/02/02 09:38:41;;;;;;;30.43;18.67;;;;;;;;;;4436508;32;20258;-87
2022/02/02 09:41:43;;;;;;;22.83;13.83;;;;;;;;;;4450726;32;20244;-83
2022/02/02 09:44:02;;;;;;;27.43;16.27;;;;;;;;;;4448043;32;20653;-81
2022/02/02 09:46:42;;;;;;;26.27;16.87;;;;;;;;;;4423560;32;20229;-81
2022/02/02 09:49:14;;;;;;;24.43;15.87;;;;;;;;;;4450311;32;20220;-81
2022/02/02 09:51:53;;;;;;;27.07;18.77;;;;;;;;;;4451509;32;20204;-87
2022/02/02 09:54:27;;;;;;;23.47;15.33;;;;;;;;;;4437665;32;20246;-82
2022/02/02 10:00:16;;;;;;;23.23;14.80;;;;;;;;;;4450320;32;20247;-79
2022/02/02 10:05:09;;;;;;;26.87;15.13;;;;;;;;;;4435043;32;20237;-83
2022/02/02 10:15:34;;;;;;;12.77;10.03;;;;;;;;;;4449577;32;20251;-80
2022/02/02 10:18:13;;;;;;;24.67;12.23;;;;;;;;;;4436442;32;20221;-80
2022/02/02 10:20:40;;;;;;;20.87;10.13;;;;;;;;;;4450475;32;20257;-82
2022/02/02 10:23:06;;;;;;;17.07;10.77;;;;;;;;;;4450287;32;20295;-79
2022/02/02 10:25:35;;;;;;;21.67;12.20;;;;;;;;;;4450112;32;20239;-80
2022/02/02 10:28:17;;;;;;;27.57;14.53;;;;;;;;;;4435947;32;20634;-80
2022/02/02 10:30:46;;;;;;;26.77;16.13;;;;;;;;;;4449696;32;20285;-79
2022/02/02 10:33:14;;;;;;;21.20;13.00;;;;;;;;;;4449954;32;20244;-79
2022/02/02 10:35:45;;;;;;;36.57;15.80;;;;;;;;;;4450132;32;20192;-82
2022/02/02 10:38:14;;;;;;;18.33;12.60;;;;;;;;;;4449897;32;20615;-79
2022/02/02 10:40:57;;;;;;;18.07;12.50;;;;;;;;;;4450230;32;20231;-86
2022/02/02 10:43:46;;;;;;;21.07;13.53;;;;;;;;;;4449882;32;20401;-80
2022/02/02 10:46:25;;;;;;;22.83;13.37;;;;;;;;;;4449584;32;20219;-79
2022/02/02 10:49:01;;;;;;;25.00;14.40;;;;;;;;;;4448069;32;20260;-79
2022/02/02 10:51:40;;;;;;;21.60;12.40;;;;;;;;;;4420185;32;20216;-83
2022/02/02 11:01:46;;;;;;;13.43;8.70;;;;;;;;;;4420173;32;20559;-81
2022/02/02 11:06:56;;;;;;;19.77;11.67;;;;;;;;;;4433813;32;20262;-81
2022/02/02 11:09:22;;;;;;;24.43;12.80;;;;;;;;;;4432283;32;20233;-81
2022/02/02 11:11:49;;;;;;;23.77;11.67;;;;;;;;;;4419785;32;20275;-81
2022/02/02 11:14:35;;;;;;;20.17;11.77;;;;;;;;;;4433464;32;20312;-80
2022/02/02 11:17:13;;;;;;;13.93;9.83;;;;;;;;;;4419559;32;20251;-79
2022/02/02 11:19:39;;;;;;;14.90;8.83;;;;;;;;;;4433296;32;20400;-80
2022/02/02 11:22:30;;;;;;;14.43;9.67;;;;;;;;;;4433099;32;20359;-85
2022/02/02 11:24:57;;;;;;;27.97;13.50;;;;;;;;;;4433616;32;20213;-80
2022/02/02 11:27:34;;;;;;;22.47;10.13;;;;;;;;;;4433676;32;20239;-82
2022/02/02 11:30:04;;;;;;;9.93;6.90;;;;;;;;;;4433495;32;20250;-80
2022/02/02 11:32:40;;;;;;;10.13;7.43;;;;;;;;;;4433615;32;20336;-81
2022/02/02 11:35:24;;;;;;;11.63;7.63;;;;;;;;;;4419900;32;20263;-86
2022/02/02 11:37:58;;;;;;;11.67;5.93;;;;;;;;;;4433963;32;20673;-80
2022/02/02 11:40:24;;;;;;;9.00;5.33;;;;;;;;;;4433478;32;20216;-87
2022/02/02 11:45:48;;;;;;;9.07;6.63;;;;;;;;;;4419004;32;20993;-87
2022/02/02 11:48:53;;;;;;;12.00;6.33;;;;;;;;;;4433253;32;20379;-80
2022/02/02 11:51:38;;;;;;;13.90;6.90;;;;;;;;;;4433306;32;20586;-84
2022/02/02 11:54:04;;;;;;;7.30;4.13;;;;;;;;;;4433546;32;20216;-81
2022/02/02 11:56:31;;;;;;;9.03;6.20;;;;;;;;;;4432226;32;20253;-83
2022/02/02 11:58:58;;;;;;;11.70;7.10;;;;;;;;;;4433802;32;20351;-81
2022/02/02 12:01:42;;;;;;;21.27;11.80;;;;;;;;;;4433525;32;20221;-83
2022/02/02 12:04:41;;;;;;;15.97;8.10;;;;;;;;;;4433208;32;20232;-83
2022/02/02 12:07:15;;;;;;;9.13;6.30;;;;;;;;;;4433580;32;20270;-81
2022/02/02 12:09:58;;;;;;;14.90;5.93;;;;;;;;;;4448355;32;20232;-81
2022/02/02 12:46:49;;;;;;;12.10;6.77;;;;;;;;;;4432716;32;20208;-86
2022/02/02 12:48:57;;;;;;;23.73;9.77;;;;;;;;;;4432342;32;20275;-80
2022/02/02 12:57:12;;;;;;;17.73;11.33;;;;;;;;;;4432006;32;20235;-80
2022/02/02 13:02:14;;;;;;;18.53;9.27;;;;;;;;;;4435653;32;20188;-82
2022/02/02 13:04:42;;;;;;;66.30;26.03;;;;;;;;;;4435536;32;20279;-81
2022/02/02 13:07:10;;;;;;;118.40;37.37;;;;;;;;;;4435471;32;20279;-80
2022/02/02 13:09:36;;;;;;;199.73;82.47;;;;;;;;;;4435074;32;20323;-83
2022/02/02 13:12:24;;;;;;;47.47;25.90;;;;;;;;;;4435487;32;20241;-80
2022/02/02 13:15:14;;;;;;;23.30;13.57;;;;;;;;;;4435391;32;20228;-80
2022/02/02 13:17:53;;;;;;;39.10;19.67;;;;;;;;;;4435236;32;20194;-80
2022/02/02 13:20:43;;;;;;;18.10;9.17;;;;;;;;;;4435301;32;20285;-85
2022/02/02 13:23:19;;;;;;;15.87;8.27;;;;;;;;;;4435279;32;20186;-83
2022/02/02 13:26:03;;;;;;;15.83;6.90;;;;;;;;;;4434834;32;20496;-81
2022/02/02 13:28:35;;;;;;;35.50;15.27;;;;;;;;;;4434622;32;20216;-85
2022/02/02 13:31:01;;;;;;;29.53;14.10;;;;;;;;;;4421278;32;20312;-80
2022/02/02 13:33:39;;;;;;;13.53;7.10;;;;;;;;;;4435229;32;20217;-82
2022/02/02 13:36:45;;;;;;;9.43;6.60;;;;;;;;;;4435623;32;20235;-80
2022/02/02 13:42:34;;;;;;;22.10;12.93;;;;;;;;;;4420665;32;20221;-81
2022/02/02 13:48:04;;;;;;;19.53;9.57;;;;;;;;;;4435184;32;20212;-81
2022/02/02 13:56:32;;;;;;;19.50;8.30;;;;;;;;;;4435211;32;20197;-80
2022/02/02 14:07:28;;;;;;;36.33;13.20;;;;;;;;;;4402595;32;20301;-79
2022/02/02 14:31:36;;;;;;;49.63;25.77;;;;;;;;;;4437092;32;20223;-82
2022/02/02 14:34:05;;;;;;;54.23;28.57;;;;;;;;;;4437708;32;20661;-81
2022/02/02 14:36:35;;;;;;;27.03;14.50;;;;;;;;;;4450264;32;20841;-81
2022/02/02 14:44:16;;;;;;;58.77;28.17;;;;;;;;;;4449883;32;20598;-83
2022/02/02 14:46:49;;;;;;;56.43;25.67;;;;;;;;;;4450012;32;20188;-83
2022/02/02 14:49:28;;;;;;;57.97;21.07;;;;;;;;;;4449789;32;20308;-81
2022/02/02 14:52:07;;;;;;;49.00;21.67;;;;;;;;;;4449903;32;20242;-80
2022/02/02 15:09:02;;;;;;;28.13;15.53;;;;;;;;;;4434250;32;20216;-80
2022/02/02 15:23:57;;;;;;;38.27;16.50;;;;;;;;;;4433699;32;20285;-83
2022/02/02 15:32:17;;;;;;;37.53;21.60;;;;;;;;;;4448653;32;20237;-80
2022/02/02 15:34:47;;;;;;;48.97;27.33;;;;;;;;;;4449389;32;20216;-81
2022/02/02 15:39:42;;;;;;;57.53;32.37;;;;;;;;;;4449605;32;20261;-80
2022/02/02 15:58:16;;;;;;;145.90;69.20;;;;;;;;;;4447881;32;20780;-85
2022/02/02 16:03:17;;;;;;;125.40;61.40;;;;;;;;;;4443668;32;20546;-80
2022/02/02 16:08:09;;;;;;;125.37;61.83;;;;;;;;;;4433527;32;20268;-80
2022/02/02 16:10:44;;;;;;;108.60;56.40;;;;;;;;;;4434095;32;20235;-85
2022/02/02 16:13:25;;;;;;;86.70;48.83;;;;;;;;;;4434146;32;20185;-81
2022/02/02 16:15:55;;;;;;;82.10;44.77;;;;;;;;;;4432912;32;20200;-80
2022/02/02 16:18:47;;;;;;;93.57;49.47;;;;;;;;;;4433731;32;20249;-80
2022/02/02 16:37:31;;;;;;;137.17;66.57;;;;;;;;;;4435815;32;20246;-82
2022/02/02 16:40:01;;;;;;;101.47;56.17;;;;;;;;;;4422892;32;20229;-82
2022/02/02 16:45:13;;;;;;;80.03;38.87;;;;;;;;;;4436765;32;20688;-85
2022/02/02 16:47:39;;;;;;;79.27;40.00;;;;;;;;;;4436578;32;20228;-84
2022/02/02 16:50:05;;;;;;;75.47;39.30;;;;;;;;;;4435859;32;20236;-86
2022/02/02 16:52:33;;;;;;;64.37;36.20;;;;;;;;;;4436927;32;20228;-83
2022/02/02 16:55:03;;;;;;;65.53;34.87;;;;;;;;;;4437044;32;20324;-81
2022/02/02 17:34:41;;;;;;;100.87;53.57;;;;;;;;;;4449809;32;20302;-86
2022/02/02 17:39:54;;;;;;;20.20;13.30;;;;;;;;;;4450296;32;20287;-86
2022/02/02 18:20:01;;;;;;;60.03;30.33;;;;;;;;;;4434353;32;20216;-79
2022/02/02 18:22:36;;;;;;;51.77;29.60;;;;;;;;;;4439376;32;20620;-79
2022/02/02 18:25:09;;;;;;;59.07;34.53;;;;;;;;;;4449718;32;20291;-79
2022/02/02 18:27:47;;;;;;;70.77;41.10;;;;;;;;;;4444812;32;20296;-78
2022/02/02 18:32:55;;;;;;;56.73;27.60;;;;;;;;;;4434400;32;20634;-79
2022/02/02 18:35:22;;;;;;;41.20;20.40;;;;;;;;;;4422503;32;20185;-79
2022/02/02 18:48:36;;;;;;;20.43;10.67;;;;;;;;;;4434798;32;20231;-84
2022/02/02 19:39:58;;;;;;;8.07;5.27;;;;;;;;;;4449631;32;20320;-82
2022/02/02 20:11:42;;;;;;;76.43;41.27;;;;;;;;;;4435754;32;20216;-85
2022/02/02 20:14:09;;;;;;;78.00;38.93;;;;;;;;;;4419949;32;20229;-83
2022/02/02 20:16:34;;;;;;;56.30;29.67;;;;;;;;;;4433648;32;20532;-84
2022/02/02 20:19:04;;;;;;;38.33;17.80;;;;;;;;;;4434063;32;20212;-85
2022/02/02 20:21:34;;;;;;;28.40;12.50;;;;;;;;;;4433873;32;20656;-83
2022/02/02 20:24:02;;;;;;;21.70;12.03;;;;;;;;;;4433891;32;20595;-84
2022/02/02 20:26:29;;;;;;;24.23;11.07;;;;;;;;;;4419808;32;20263;-84
2022/02/02 20:28:55;;;;;;;21.17;13.03;;;;;;;;;;4433549;32;20253;-85
2022/02/02 20:31:21;;;;;;;21.70;13.00;;;;;;;;;;4433859;32;20695;-86
2022/02/02 20:33:46;;;;;;;37.87;18.13;;;;;;;;;;4433717;32;20189;-85
2022/02/02 20:36:12;;;;;;;484.57;167.90;;;;;;;;;;4434211;32;20205;-85
2022/02/02 20:38:38;;;;;;;151.27;57.57;;;;;;;;;;4433876;32;20196;-86
2022/02/02 20:41:04;;;;;;;86.93;39.30;;;;;;;;;;4433849;32;20648;-87
2022/02/02 20:43:48;;;;;;;55.53;27.07;;;;;;;;;;4433843;32;20255;-86
2022/02/02 21:07:37;;;;;;;39.40;18.83;;;;;;;;;;4440615;32;20316;-82
2022/02/02 21:10:07;;;;;;;35.57;16.80;;;;;;;;;;4433717;32;20251;-82
2022/02/02 21:15:25;;;;;;;28.73;16.33;;;;;;;;;;4436123;32;20835;-83
2022/02/02 21:17:52;;;;;;;28.63;14.77;;;;;;;;;;4422061;32;20301;-83
2022/02/02 21:20:40;;;;;;;33.50;16.00;;;;;;;;;;4436228;32;20267;-83
2022/02/02 21:26:16;;;;;;;46.53;18.37;;;;;;;;;;4436262;32;20213;-82
2022/02/02 21:28:42;;;;;;;44.37;20.60;;;;;;;;;;4436142;32;20193;-83
2022/02/02 21:31:08;;;;;;;44.27;18.00;;;;;;;;;;4436691;32;20247;-83
2022/02/02 21:33:36;;;;;;;36.07;17.37;;;;;;;;;;4435944;32;20229;-82
2022/02/02 21:36:02;;;;;;;31.30;17.07;;;;;;;;;;4435637;32;20209;-81
2022/02/02 21:38:34;;;;;;;50.87;22.60;;;;;;;;;;4436405;32;20308;-83
2022/02/02 21:41:00;;;;;;;52.10;23.27;;;;;;;;;;4435698;32;20224;-82
2022/02/02 21:43:27;;;;;;;47.07;21.73;;;;;;;;;;4435763;32;20206;-82
2022/02/02 21:45:55;;;;;;;51.37;24.90;;;;;;;;;;4435775;32;20272;-82
2022/02/02 21:48:24;;;;;;;45.33;25.73;;;;;;;;;;4434213;32;20331;-81
2022/02/02 21:50:54;;;;;;;84.77;35.83;;;;;;;;;;4443590;32;20204;-82
2022/02/02 21:53:20;;;;;;;156.43;64.30;;;;;;;;;;4434780;32;20351;-81
2022/02/02 21:55:46;;;;;;;186.67;70.07;;;;;;;;;;4435540;32;20591;-82
2022/02/02 21:58:12;;;;;;;130.27;54.43;;;;;;;;;;4435485;32;20266;-81
2022/02/02 22:00:38;;;;;;;142.77;59.93;;;;;;;;;;4422098;32;20645;-82
2022/02/02 22:03:04;;;;;;;192.80;85.23;;;;;;;;;;4445909;32;20283;-82
2022/02/02 22:05:29;;;;;;;151.10;66.07;;;;;;;;;;4435828;32;20284;-84
2022/02/02 22:07:55;;;;;;;114.00;52.53;;;;;;;;;;4435179;32;20445;-81
2022/02/02 22:10:21;;;;;;;82.93;41.73;;;;;;;;;;4433807;32;20279;-83
2022/02/02 22:12:47;;;;;;;80.73;38.77;;;;;;;;;;4435796;32;20248;-81
2022/02/02 22:15:22;;;;;;;80.17;39.33;;;;;;;;;;4435561;32;20224;-82
2022/02/02 22:17:48;;;;;;;58.67;27.40;;;;;;;;;;4435351;32;20216;-82
2022/02/02 22:20:16;;;;;;;57.13;28.57;;;;;;;;;;4434650;32;20287;-82
2022/02/02 22:22:47;;;;;;;63.23;29.33;;;;;;;;;;4434638;32;20308;-81
2022/02/02 22:25:14;;;;;;;74.23;35.50;;;;;;;;;;4435100;32;20201;-84
2022/02/02 22:27:40;;;;;;;73.17;36.70;;;;;;;;;;4435218;32;20248;-83
2022/02/02 22:30:07;;;;;;;78.40;34.53;;;;;;;;;;4435507;32;20200;-81
2022/02/02 22:32:33;;;;;;;71.57;33.53;;;;;;;;;;4435060;32;20290;-81
2022/02/02 22:34:59;;;;;;;49.33;27.23;;;;;;;;;;4435603;32;20227;-82
2022/02/02 22:37:25;;;;;;;55.93;25.50;;;;;;;;;;4435933;32;20730;-82
2022/02/02 22:39:52;;;;;;;54.40;24.77;;;;;;;;;;4435161;32;20308;-81
2022/02/02 22:42:22;;;;;;;74.47;36.10;;;;;;;;;;4435508;32;20224;-82
2022/02/02 22:44:49;;;;;;;46.57;26.03;;;;;;;;;;4434184;32;20290;-83
2022/02/02 22:47:16;;;;;;;39.33;19.23;;;;;;;;;;4427419;32;20699;-82
2022/02/02 22:49:45;;;;;;;42.90;23.33;;;;;;;;;;4443805;32;20311;-81
2022/02/02 22:52:12;;;;;;;55.33;27.33;;;;;;;;;;4445434;32;20282;-82
2022/02/02 22:54:40;;;;;;;65.77;32.00;;;;;;;;;;4436619;32;20237;-83
2022/02/02 22:57:05;;;;;;;71.50;30.43;;;;;;;;;;4441588;32;20342;-83
2022/02/02 22:59:31;;;;;;;60.03;29.63;;;;;;;;;;4435581;32;20235;-82
2022/02/02 23:02:04;;;;;;;75.73;35.03;;;;;;;;;;4440601;32;20279;-81
2022/02/02 23:04:29;;;;;;;69.67;36.50;;;;;;;;;;4437858;32;20201;-82
2022/02/02 23:07:01;;;;;;;68.83;36.73;;;;;;;;;;4432011;32;21183;-82
2022/02/02 23:09:27;;;;;;;94.30;46.50;;;;;;;;;;4434585;32;20284;-82
2022/02/02 23:11:53;;;;;;;78.80;45.77;;;;;;;;;;4434812;32;20224;-82
2022/02/02 23:14:23;;;;;;;65.23;35.83;;;;;;;;;;4433710;32;20288;-82
2022/02/02 23:16:51;;;;;;;46.83;23.57;;;;;;;;;;4432995;32;20927;-82
2022/02/02 23:19:16;;;;;;;43.53;22.40;;;;;;;;;;4433901;32;20220;-83
2022/02/02 23:21:44;;;;;;;43.10;22.93;;;;;;;;;;4432892;32;20321;-82
2022/02/02 23:24:12;;;;;;;50.80;29.07;;;;;;;;;;4433474;32;20254;-82
2022/02/02 23:26:41;;;;;;;81.13;47.93;;;;;;;;;;4433022;32;20320;-82
2022/02/02 23:29:08;;;;;;;55.43;36.27;;;;;;;;;;4434601;32;20684;-81
2022/02/02 23:31:34;;;;;;;46.47;30.67;;;;;;;;;;4434450;32;20289;-83
2022/02/02 23:33:59;;;;;;;44.97;33.47;;;;;;;;;;4433139;32;20362;-82
2022/02/02 23:36:25;;;;;;;42.90;30.33;;;;;;;;;;4434053;32;20370;-82
2022/02/02 23:38:51;;;;;;;35.57;24.57;;;;;;;;;;4434048;32;20192;-82
2022/02/02 23:44:01;;;;;;;43.20;23.00;;;;;;;;;;4434296;32;20334;-82
2022/02/02 23:46:29;;;;;;;32.43;20.27;;;;;;;;;;4434377;32;20252;-82
2022/02/02 23:49:04;;;;;;;42.60;23.13;;;;;;;;;;4431730;32;20627;-81
2022/02/02 23:51:35;;;;;;;58.97;31.00;;;;;;;;;;4432091;32;20256;-82
2022/02/02 23:54:03;;;;;;;48.80;26.47;;;;;;;;;;4444400;32;20227;-82
2022/02/02 23:59:07;;;;;;;54.07;31.57;;;;;;;;;;4439533;32;20221;-81
